sensor_id;sensor_type;location;lat;lon;timestamp;pressure;altitude;pressure_sealevel;temperature;humidity
13695;BME280;6919;52.344;14.518;2023-11-22T00:00:40;101618.41;;;0.38;100.00
13695;BME280;6919;52.344;14.518;2023-11-22T00:03:08;101615.59;;;0.43;100.00
13695;BME280;6919;52.344;14.518;2023-11-22T00:05:37;101617.50;;;0.39;100.00
13695;BME280;6919;52.344;14.518;2023-11-22T00:08:06;101627.84;;;0.44;100.00
13695;BME280;6919;52.344;14.518;2023-11-22T00:10:35;101618.34;;;0.40;100.00
13695;BME280;6919;52.344;14.518;2023-11-22T00:13:04;101624.50;;;0.40;100.00
13695;BME280;6919;52.344;14.518;2023-11-22T00:15:33;101633.53;;;0.35;100.00
13695;BME280;6919;52.344;14.518;2023-11-22T00:18:03;101639.69;;;0.34;100.00
13695;BME280;6919;52.344;14.518;2023-11-22T00:20:32;101639.56;;;0.17;100.00
13695;BME280;6919;52.344;14.518;2023-11-22T00:23:01;101635.34;;;0.13;100.00
13695;BME280;6919;52.344;14.518;2023-11-22T00:25:30;101645.97;;;0.11;100.00
13695;BME280;6919;52.344;14.518;2023-11-22T00:28:00;101638.16;;;0.08;100.00
13695;BME280;6919;52.344;14.518;2023-11-22T00:30:30;101644.63;;;0.01;100.00
13695;BME280;6919;52.344;14.518;2023-11-22T00:32:58;101634.34;;;0.15;100.00
13695;BME280;6919;52.344;14.518;2023-11-22T00:35:27;101642.44;;;0.11;100.00
13695;BME280;6919;52.344;14.518;2023-11-22T00:37:55;101645.31;;;0.04;100.00
13695;BME280;6919;52.344;14.518;2023-11-22T00:40:25;101659.13;;;-0.11;100.00
13695;BME280;6919;52.344;14.518;2023-11-22T00:42:53;101663.25;;;-0.04;100.00
13695;BME280;6919;52.344;14.518;2023-11-22T00:45:22;101667.97;;;-0.12;100.00
13695;BME280;6919;52.344;14.518;2023-11-22T00:47:52;101666.13;;;-0.10;100.00
13695;BME280;6919;52.344;14.518;2023-11-22T00:50:20;101675.38;;;0.00;100.00
13695;BME280;6919;52.344;14.518;2023-11-22T00:52:49;101677.09;;;0.01;100.00
13695;BME280;6919;52.344;14.518;2023-11-22T00:55:19;101677.34;;;-0.05;100.00
13695;BME280;6919;52.344;14.518;2023-11-22T00:57:48;101689.25;;;0.06;100.00
13695;BME280;6919;52.344;14.518;2023-11-22T01:00:17;101690.94;;;-0.15;100.00
13695;BME280;6919;52.344;14.518;2023-11-22T01:02:45;101691.69;;;-0.12;100.00
13695;BME280;6919;52.344;14.518;2023-11-22T01:05:15;101684.50;;;-0.08;100.00
13695;BME280;6919;52.344;14.518;2023-11-22T01:07:44;101692.69;;;-0.14;100.00
13695;BME280;6919;52.344;14.518;2023-11-22T01:10:13;101690.81;;;-0.12;100.00
13695;BME280;6919;52.344;14.518;2023-11-22T01:12:42;101702.69;;;-0.24;100.00
13695;BME280;6919;52.344;14.518;2023-11-22T01:15:11;101712.84;;;-0.13;100.00
13695;BME280;6919;52.344;14.518;2023-11-22T01:17:40;101715.81;;;-0.22;100.00
13695;BME280;6919;52.344;14.518;2023-11-22T01:20:09;101717.56;;;-0.21;100.00
13695;BME280;6919;52.344;14.518;2023-11-22T01:22:40;101712.34;;;-0.23;100.00
13695;BME280;6919;52.344;14.518;2023-11-22T01:25:09;101718.06;;;-0.35;100.00
13695;BME280;6919;52.344;14.518;2023-11-22T01:27:38;101724.88;;;-0.29;100.00
13695;BME280;6919;52.344;14.518;2023-11-22T01:30:07;101727.28;;;-0.23;100.00
13695;BME280;6919;52.344;14.518;2023-11-22T01:32:35;101729.53;;;-0.36;100.00
13695;BME280;6919;52.344;14.518;2023-11-22T01:35:05;101734.84;;;-0.37;100.00
13695;BME280;6919;52.344;14.518;2023-11-22T01:37:34;101741.28;;;-0.44;100.00
13695;BME280;6919;52.344;14.518;2023-11-22T01:40:04;101737.53;;;-0.39;100.00
13695;BME280;6919;52.344;14.518;2023-11-22T01:42:35;101728.78;;;-0.39;100.00
13695;BME280;6919;52.344;14.518;2023-11-22T01:45:08;101728.66;;;-0.36;100.00
13695;BME280;6919;52.344;14.518;2023-11-22T01:47:38;101724.19;;;-0.34;100.00
13695;BME280;6919;52.344;14.518;2023-11-22T01:50:07;101715.84;;;-0.45;100.00
13695;BME280;6919;52.344;14.518;2023-11-22T01:52:37;101714.09;;;-0.46;100.00
13695;BME280;6919;52.344;14.518;2023-11-22T01:55:08;101722.25;;;-0.52;100.00
13695;BME280;6919;52.344;14.518;2023-11-22T01:57:37;101714.63;;;-0.60;100.00
13695;BME280;6919;52.344;14.518;2023-11-22T02:00:07;101716.28;;;-0.57;100.00
13695;BME280;6919;52.344;14.518;2023-11-22T02:02:42;101728.78;;;-0.62;100.00
13695;BME280;6919;52.344;14.518;2023-11-22T02:05:11;101733.78;;;-0.55;100.00
13695;BME280;6919;52.344;14.518;2023-11-22T02:07:40;101740.50;;;-0.71;100.00
13695;BME280;6919;52.344;14.518;2023-11-22T02:10:11;101735.28;;;-0.72;100.00
13695;BME280;6919;52.344;14.518;2023-11-22T02:12:40;101734.88;;;-0.60;100.00
13695;BME280;6919;52.344;14.518;2023-11-22T02:15:09;101730.59;;;-0.64;100.00
13695;BME280;6919;52.344;14.518;2023-11-22T02:17:38;101734.41;;;-0.48;100.00
13695;BME280;6919;52.344;14.518;2023-11-22T02:20:09;101741.53;;;-0.52;100.00
13695;BME280;6919;52.344;14.518;2023-11-22T02:22:45;101755.19;;;-0.64;100.00
13695;BME280;6919;52.344;14.518;2023-11-22T02:25:15;101758.25;;;-0.76;100.00
13695;BME280;6919;52.344;14.518;2023-11-22T02:27:44;101759.56;;;-0.64;100.00
13695;BME280;6919;52.344;14.518;2023-11-22T02:30:13;101756.09;;;-0.65;100.00
13695;BME280;6919;52.344;14.518;2023-11-22T02:32:41;101745.63;;;-0.66;100.00
13695;BME280;6919;52.344;14.518;2023-11-22T02:35:11;101746.59;;;-0.69;100.00
13695;BME280;6919;52.344;14.518;2023-11-22T02:37:40;101756.25;;;-0.69;100.00
13695;BME280;6919;52.344;14.518;2023-11-22T02:40:18;101772.75;;;-0.64;100.00
13695;BME280;6919;52.344;14.518;2023-11-22T02:42:47;101761.69;;;-0.74;100.00
13695;BME280;6919;52.344;14.518;2023-11-22T02:45:16;101768.03;;;-0.79;100.00
13695;BME280;6919;52.344;14.518;2023-11-22T02:47:46;101761.31;;;-0.88;100.00
13695;BME280;6919;52.344;14.518;2023-11-22T02:50:15;101751.97;;;-0.72;100.00
13695;BME280;6919;52.344;14.518;2023-11-22T02:52:43;101753.16;;;-0.80;100.00
13695;BME280;6919;52.344;14.518;2023-11-22T02:55:12;101765.78;;;-0.90;100.00
13695;BME280;6919;52.344;14.518;2023-11-22T02:57:43;101770.56;;;-1.01;100.00
13695;BME280;6919;52.344;14.518;2023-11-22T03:00:13;101775.59;;;-0.95;100.00
13695;BME280;6919;52.344;14.518;2023-11-22T03:02:42;101772.09;;;-0.94;100.00
13695;BME280;6919;52.344;14.518;2023-11-22T03:05:11;101766.16;;;-1.00;100.00
13695;BME280;6919;52.344;14.518;2023-11-22T03:07:40;101774.91;;;-1.00;100.00
13695;BME280;6919;52.344;14.518;2023-11-22T03:10:09;101779.22;;;-0.97;100.00
13695;BME280;6919;52.344;14.518;2023-11-22T03:12:38;101798.50;;;-0.97;100.00
13695;BME280;6919;52.344;14.518;2023-11-22T03:15:09;101793.28;;;-0.98;100.00
13695;BME280;6919;52.344;14.518;2023-11-22T03:17:39;101794.03;;;-0.95;100.00
13695;BME280;6919;52.344;14.518;2023-11-22T03:20:08;101797.88;;;-1.05;100.00
13695;BME280;6919;52.344;14.518;2023-11-22T03:22:36;101799.00;;;-1.12;100.00
13695;BME280;6919;52.344;14.518;2023-11-22T03:25:05;101794.47;;;-1.07;100.00
13695;BME280;6919;52.344;14.518;2023-11-22T03:27:37;101803.03;;;-1.02;100.00
13695;BME280;6919;52.344;14.518;2023-11-22T03:30:08;101816.59;;;-1.12;100.00
13695;BME280;6919;52.344;14.518;2023-11-22T03:32:39;101824.47;;;-1.12;100.00
13695;BME280;6919;52.344;14.518;2023-11-22T03:35:09;101826.22;;;-1.13;100.00
13695;BME280;6919;52.344;14.518;2023-11-22T03:37:38;101828.81;;;-1.11;100.00
13695;BME280;6919;52.344;14.518;2023-11-22T03:40:07;101831.16;;;-1.02;100.00
13695;BME280;6919;52.344;14.518;2023-11-22T03:42:38;101830.56;;;-1.12;100.00
13695;BME280;6919;52.344;14.518;2023-11-22T03:45:09;101840.81;;;-1.29;100.00
13695;BME280;6919;52.344;14.518;2023-11-22T03:47:39;101846.78;;;-1.24;100.00
13695;BME280;6919;52.344;14.518;2023-11-22T03:50:08;101851.41;;;-1.30;100.00
13695;BME280;6919;52.344;14.518;2023-11-22T03:52:37;101858.81;;;-1.43;100.00
13695;BME280;6919;52.344;14.518;2023-11-22T03:55:07;101856.69;;;-1.32;100.00
13695;BME280;6919;52.344;14.518;2023-11-22T03:57:35;101874.00;;;-1.25;100.00
13695;BME280;6919;52.344;14.518;2023-11-22T04:00:05;101875.94;;;-1.31;100.00
13695;BME280;6919;52.344;14.518;2023-11-22T04:02:38;101876.59;;;-1.23;100.00
13695;BME280;6919;52.344;14.518;2023-11-22T04:05:11;101879.31;;;-1.26;100.00
13695;BME280;6919;52.344;14.518;2023-11-22T04:07:40;101883.00;;;-1.32;100.00
13695;BME280;6919;52.344;14.518;2023-11-22T04:10:09;101895.38;;;-1.35;100.00
13695;BME280;6919;52.344;14.518;2023-11-22T04:12:38;101894.91;;;-1.48;100.00
13695;BME280;6919;52.344;14.518;2023-11-22T04:15:08;101899.84;;;-1.37;100.00
13695;BME280;6919;52.344;14.518;2023-11-22T04:17:40;101907.47;;;-1.30;100.00
13695;BME280;6919;52.344;14.518;2023-11-22T04:20:10;101918.56;;;-1.48;100.00
13695;BME280;6919;52.344;14.518;2023-11-22T04:22:43;101926.38;;;-1.45;100.00
13695;BME280;6919;52.344;14.518;2023-11-22T04:25:12;101927.50;;;-1.53;100.00
13695;BME280;6919;52.344;14.518;2023-11-22T04:27:41;101920.06;;;-1.39;100.00
13695;BME280;6919;52.344;14.518;2023-11-22T04:30:11;101924.38;;;-1.37;100.00
13695;BME280;6919;52.344;14.518;2023-11-22T04:32:43;101923.25;;;-1.30;100.00
13695;BME280;6919;52.344;14.518;2023-11-22T04:35:13;101933.00;;;-1.32;100.00
13695;BME280;6919;52.344;14.518;2023-11-22T04:37:41;101936.72;;;-1.39;100.00
13695;BME280;6919;52.344;14.518;2023-11-22T04:40:11;101949.47;;;-1.54;100.00
13695;BME280;6919;52.344;14.518;2023-11-22T04:42:42;101947.25;;;-1.68;100.00
13695;BME280;6919;52.344;14.518;2023-11-22T04:45:11;101935.25;;;-1.49;100.00
13695;BME280;6919;52.344;14.518;2023-11-22T04:47:40;101928.09;;;-1.44;100.00
13695;BME280;6919;52.344;14.518;2023-11-22T04:50:11;101925.75;;;-1.53;100.00
13695;BME280;6919;52.344;14.518;2023-11-22T04:52:40;101938.16;;;-1.58;100.00
13695;BME280;6919;52.344;14.518;2023-11-22T04:55:09;101931.31;;;-1.63;100.00
13695;BME280;6919;52.344;14.518;2023-11-22T04:57:38;101927.81;;;-1.62;100.00
13695;BME280;6919;52.344;14.518;2023-11-22T05:00:08;101930.19;;;-1.55;100.00
13695;BME280;6919;52.344;14.518;2023-11-22T05:02:38;101931.16;;;-1.57;100.00
13695;BME280;6919;52.344;14.518;2023-11-22T05:05:07;101940.13;;;-1.64;100.00
13695;BME280;6919;52.344;14.518;2023-11-22T05:07:40;101947.38;;;-1.72;100.00
13695;BME280;6919;52.344;14.518;2023-11-22T05:10:09;101946.66;;;-1.79;100.00
13695;BME280;6919;52.344;14.518;2023-11-22T05:12:41;101946.59;;;-1.76;100.00
13695;BME280;6919;52.344;14.518;2023-11-22T05:15:14;101939.06;;;-1.59;100.00
13695;BME280;6919;52.344;14.518;2023-11-22T05:17:42;101932.91;;;-1.58;100.00
13695;BME280;6919;52.344;14.518;2023-11-22T05:20:11;101930.50;;;-1.65;100.00
13695;BME280;6919;52.344;14.518;2023-11-22T05:22:41;101937.53;;;-1.66;100.00
13695;BME280;6919;52.344;14.518;2023-11-22T05:25:09;101942.13;;;-1.72;100.00
13695;BME280;6919;52.344;14.518;2023-11-22T05:27:38;101946.91;;;-1.86;100.00
13695;BME280;6919;52.344;14.518;2023-11-22T05:30:08;101943.94;;;-1.76;100.00
13695;BME280;6919;52.344;14.518;2023-11-22T05:32:38;101938.56;;;-1.71;100.00
13695;BME280;6919;52.344;14.518;2023-11-22T05:35:07;101942.25;;;-1.77;100.00
13695;BME280;6919;52.344;14.518;2023-11-22T05:37:37;101941.00;;;-1.64;100.00
13695;BME280;6919;52.344;14.518;2023-11-22T05:40:08;101934.34;;;-1.77;100.00
13695;BME280;6919;52.344;14.518;2023-11-22T05:42:38;101932.44;;;-1.72;100.00
13695;BME280;6919;52.344;14.518;2023-11-22T05:45:08;101944.81;;;-1.75;100.00
13695;BME280;6919;52.344;14.518;2023-11-22T05:47:37;101959.88;;;-1.80;100.00
13695;BME280;6919;52.344;14.518;2023-11-22T05:50:08;101969.97;;;-1.96;100.00
13695;BME280;6919;52.344;14.518;2023-11-22T05:52:37;101982.16;;;-1.93;100.00
13695;BME280;6919;52.344;14.518;2023-11-22T05:55:08;101991.97;;;-2.00;100.00
13695;BME280;6919;52.344;14.518;2023-11-22T05:57:37;102006.91;;;-2.02;100.00
13695;BME280;6919;52.344;14.518;2023-11-22T06:00:07;102017.16;;;-1.93;100.00
13695;BME280;6919;52.344;14.518;2023-11-22T06:02:35;102024.84;;;-1.85;100.00
13695;BME280;6919;52.344;14.518;2023-11-22T06:05:07;102039.13;;;-1.95;100.00
13695;BME280;6919;52.344;14.518;2023-11-22T06:07:37;102047.16;;;-2.00;100.00
13695;BME280;6919;52.344;14.518;2023-11-22T06:10:08;102045.44;;;-2.02;100.00
13695;BME280;6919;52.344;14.518;2023-11-22T06:12:36;102051.44;;;-1.96;100.00
13695;BME280;6919;52.344;14.518;2023-11-22T06:15:06;102041.56;;;-1.88;100.00
13695;BME280;6919;52.344;14.518;2023-11-22T06:17:34;102025.63;;;-1.82;100.00
13695;BME280;6919;52.344;14.518;2023-11-22T06:20:04;102021.00;;;-1.72;100.00
13695;BME280;6919;52.344;14.518;2023-11-22T06:22:34;102019.16;;;-1.70;100.00
13695;BME280;6919;52.344;14.518;2023-11-22T06:25:02;102015.09;;;-1.80;100.00
13695;BME280;6919;52.344;14.518;2023-11-22T06:27:33;102025.88;;;-1.91;100.00
13695;BME280;6919;52.344;14.518;2023-11-22T06:30:01;102040.38;;;-2.08;100.00
13695;BME280;6919;52.344;14.518;2023-11-22T06:32:30;102059.47;;;-2.02;100.00
13695;BME280;6919;52.344;14.518;2023-11-22T06:34:59;102064.59;;;-1.97;100.00
13695;BME280;6919;52.344;14.518;2023-11-22T06:37:27;102055.69;;;-1.92;100.00
13695;BME280;6919;52.344;14.518;2023-11-22T06:39:57;102043.63;;;-1.99;100.00
13695;BME280;6919;52.344;14.518;2023-11-22T06:42:26;102041.59;;;-1.89;100.00
13695;BME280;6919;52.344;14.518;2023-11-22T06:44:56;102039.03;;;-1.91;100.00
13695;BME280;6919;52.344;14.518;2023-11-22T06:47:27;102026.91;;;-1.96;100.00
13695;BME280;6919;52.344;14.518;2023-11-22T06:49:56;102021.59;;;-1.95;100.00
13695;BME280;6919;52.344;14.518;2023-11-22T06:52:25;102014.94;;;-1.76;100.00
13695;BME280;6919;52.344;14.518;2023-11-22T06:54:54;101998.78;;;-1.62;100.00
13695;BME280;6919;52.344;14.518;2023-11-22T06:57:22;102008.31;;;-1.58;100.00
13695;BME280;6919;52.344;14.518;2023-11-22T06:59:59;102017.97;;;-1.59;100.00
13695;BME280;6919;52.344;14.518;2023-11-22T07:02:28;102022.53;;;-1.65;100.00
13695;BME280;6919;52.344;14.518;2023-11-22T07:04:57;102030.59;;;-1.71;100.00
13695;BME280;6919;52.344;14.518;2023-11-22T07:07:26;102032.03;;;-1.60;100.00
13695;BME280;6919;52.344;14.518;2023-11-22T07:09:55;102033.69;;;-1.57;100.00
13695;BME280;6919;52.344;14.518;2023-11-22T07:12:27;102042.38;;;-1.54;100.00
13695;BME280;6919;52.344;14.518;2023-11-22T07:14:56;102045.22;;;-1.61;100.00
13695;BME280;6919;52.344;14.518;2023-11-22T07:17:26;102060.38;;;-1.71;100.00
13695;BME280;6919;52.344;14.518;2023-11-22T07:19:56;102070.81;;;-1.68;100.00
13695;BME280;6919;52.344;14.518;2023-11-22T07:22:24;102071.78;;;-1.72;100.00
13695;BME280;6919;52.344;14.518;2023-11-22T07:24:54;102070.47;;;-1.56;100.00
13695;BME280;6919;52.344;14.518;2023-11-22T07:27:27;102072.75;;;-1.44;100.00
13695;BME280;6919;52.344;14.518;2023-11-22T07:29:55;102079.09;;;-1.51;100.00
13695;BME280;6919;52.344;14.518;2023-11-22T07:32:25;102085.91;;;-1.44;100.00
13695;BME280;6919;52.344;14.518;2023-11-22T07:34:54;102092.56;;;-1.31;100.00
13695;BME280;6919;52.344;14.518;2023-11-22T07:37:23;102101.72;;;-1.45;100.00
13695;BME280;6919;52.344;14.518;2023-11-22T07:39:52;102107.25;;;-1.24;100.00
13695;BME280;6919;52.344;14.518;2023-11-22T07:42:21;102118.91;;;-1.32;100.00
13695;BME280;6919;52.344;14.518;2023-11-22T07:44:49;102111.53;;;-1.20;100.00
13695;BME280;6919;52.344;14.518;2023-11-22T07:47:24;102128.28;;;-1.22;100.00
13695;BME280;6919;52.344;14.518;2023-11-22T07:49:53;102130.69;;;-1.15;100.00
13695;BME280;6919;52.344;14.518;2023-11-22T07:52:22;102134.97;;;-1.11;100.00
13695;BME280;6919;52.344;14.518;2023-11-22T07:54:57;102134.72;;;-1.03;100.00
13695;BME280;6919;52.344;14.518;2023-11-22T07:57:25;102131.72;;;-0.90;100.00
13695;BME280;6919;52.344;14.518;2023-11-22T07:59:54;102137.00;;;-0.90;100.00
13695;BME280;6919;52.344;14.518;2023-11-22T08:02:25;102136.78;;;-0.84;100.00
13695;BME280;6919;52.344;14.518;2023-11-22T08:04:54;102133.28;;;-0.83;100.00
13695;BME280;6919;52.344;14.518;2023-11-22T08:07:22;102123.41;;;-0.76;100.00
13695;BME280;6919;52.344;14.518;2023-11-22T08:09:51;102116.00;;;-0.64;100.00
13695;BME280;6919;52.344;14.518;2023-11-22T08:12:19;102106.06;;;-0.56;100.00
13695;BME280;6919;52.344;14.518;2023-11-22T08:14:50;102096.63;;;-0.63;100.00
13695;BME280;6919;52.344;14.518;2023-11-22T08:17:22;102094.22;;;-0.69;100.00
13695;BME280;6919;52.344;14.518;2023-11-22T08:19:53;102105.31;;;-0.59;100.00
13695;BME280;6919;52.344;14.518;2023-11-22T08:22:21;102106.31;;;-0.36;100.00
13695;BME280;6919;52.344;14.518;2023-11-22T08:24:50;102106.22;;;-0.33;100.00
13695;BME280;6919;52.344;14.518;2023-11-22T08:27:18;102101.66;;;-0.28;100.00
13695;BME280;6919;52.344;14.518;2023-11-22T08:29:47;102114.75;;;-0.25;100.00
13695;BME280;6919;52.344;14.518;2023-11-22T08:32:15;102120.94;;;-0.26;100.00
13695;BME280;6919;52.344;14.518;2023-11-22T08:34:45;102128.28;;;-0.35;100.00
13695;BME280;6919;52.344;14.518;2023-11-22T08:37:15;102135.50;;;-0.42;100.00
13695;BME280;6919;52.344;14.518;2023-11-22T08:39:43;102142.09;;;-0.29;100.00
13695;BME280;6919;52.344;14.518;2023-11-22T08:42:12;102149.56;;;-0.15;100.00
13695;BME280;6919;52.344;14.518;2023-11-22T08:44:43;102143.63;;;-0.22;100.00
13695;BME280;6919;52.344;14.518;2023-11-22T08:47:12;102156.81;;;-0.22;100.00
13695;BME280;6919;52.344;14.518;2023-11-22T08:49:41;102156.16;;;-0.28;100.00
13695;BME280;6919;52.344;14.518;2023-11-22T08:52:10;102175.34;;;-0.25;100.00
13695;BME280;6919;52.344;14.518;2023-11-22T08:54:41;102173.63;;;0.02;100.00
13695;BME280;6919;52.344;14.518;2023-11-22T08:57:10;102154.84;;;0.13;100.00
13695;BME280;6919;52.344;14.518;2023-11-22T08:59:39;102166.63;;;0.01;100.00
13695;BME280;6919;52.344;14.518;2023-11-22T09:02:07;102158.78;;;-0.01;100.00
13695;BME280;6919;52.344;14.518;2023-11-22T09:04:39;102160.66;;;-0.06;100.00
13695;BME280;6919;52.344;14.518;2023-11-22T09:07:08;102157.28;;;-0.09;100.00
13695;BME280;6919;52.344;14.518;2023-11-22T09:09:43;102154.38;;;0.00;100.00
13695;BME280;6919;52.344;14.518;2023-11-22T09:12:11;102146.03;;;0.38;100.00
13695;BME280;6919;52.344;14.518;2023-11-22T09:14:40;102150.41;;;0.64;100.00
13695;BME280;6919;52.344;14.518;2023-11-22T09:17:10;102142.88;;;0.53;100.00
13695;BME280;6919;52.344;14.518;2023-11-22T09:19:38;102129.13;;;0.44;100.00
13695;BME280;6919;52.344;14.518;2023-11-22T09:22:07;102139.47;;;0.50;100.00
13695;BME280;6919;52.344;14.518;2023-11-22T09:24:38;102133.50;;;0.19;100.00
13695;BME280;6919;52.344;14.518;2023-11-22T09:27:08;102132.03;;;0.61;100.00
13695;BME280;6919;52.344;14.518;2023-11-22T09:29:39;102136.63;;;0.30;100.00
13695;BME280;6919;52.344;14.518;2023-11-22T09:32:07;102143.13;;;0.46;100.00
13695;BME280;6919;52.344;14.518;2023-11-22T09:34:38;102149.03;;;0.52;100.00
13695;BME280;6919;52.344;14.518;2023-11-22T09:37:06;102150.91;;;0.50;100.00
13695;BME280;6919;52.344;14.518;2023-11-22T09:39:35;102147.06;;;0.59;100.00
13695;BME280;6919;52.344;14.518;2023-11-22T09:42:04;102141.06;;;0.54;100.00
13695;BME280;6919;52.344;14.518;2023-11-22T09:44:34;102132.75;;;0.66;100.00
13695;BME280;6919;52.344;14.518;2023-11-22T09:47:06;102137.94;;;0.92;100.00
13695;BME280;6919;52.344;14.518;2023-11-22T09:49:35;102139.41;;;0.76;100.00
13695;BME280;6919;52.344;14.518;2023-11-22T09:52:09;102143.50;;;0.60;100.00
13695;BME280;6919;52.344;14.518;2023-11-22T09:54:41;102143.91;;;0.97;100.00
13695;BME280;6919;52.344;14.518;2023-11-22T09:57:10;102145.16;;;0.87;100.00
13695;BME280;6919;52.344;14.518;2023-11-22T09:59:41;102139.63;;;0.70;100.00
13695;BME280;6919;52.344;14.518;2023-11-22T10:02:10;102136.44;;;0.85;100.00
13695;BME280;6919;52.344;14.518;2023-11-22T10:04:39;102127.84;;;1.03;100.00
13695;BME280;6919;52.344;14.518;2023-11-22T10:07:08;102109.09;;;1.32;100.00
13695;BME280;6919;52.344;14.518;2023-11-22T10:09:37;102109.09;;;1.32;100.00
13695;BME280;6919;52.344;14.518;2023-11-22T10:12:09;102105.78;;;1.27;100.00
13695;BME280;6919;52.344;14.518;2023-11-22T10:14:41;102093.84;;;1.17;100.00
13695;BME280;6919;52.344;14.518;2023-11-22T10:17:09;102095.06;;;1.31;100.00
13695;BME280;6919;52.344;14.518;2023-11-22T10:19:39;102084.44;;;1.33;100.00
13695;BME280;6919;52.344;14.518;2023-11-22T10:22:09;102090.59;;;1.32;100.00
13695;BME280;6919;52.344;14.518;2023-11-22T10:24:44;102096.00;;;1.29;100.00
13695;BME280;6919;52.344;14.518;2023-11-22T10:27:15;102104.19;;;1.23;100.00
13695;BME280;6919;52.344;14.518;2023-11-22T10:29:48;102120.50;;;1.77;100.00
13695;BME280;6919;52.344;14.518;2023-11-22T10:32:17;102113.88;;;1.67;100.00
13695;BME280;6919;52.344;14.518;2023-11-22T10:34:45;102111.66;;;1.56;100.00
13695;BME280;6919;52.344;14.518;2023-11-22T10:37:14;102109.00;;;1.35;100.00
13695;BME280;6919;52.344;14.518;2023-11-22T10:39:45;102121.16;;;1.39;100.00
13695;BME280;6919;52.344;14.518;2023-11-22T10:42:19;102126.09;;;1.25;100.00
13695;BME280;6919;52.344;14.518;2023-11-22T10:44:51;102131.81;;;1.59;100.00
13695;BME280;6919;52.344;14.518;2023-11-22T10:47:21;102128.09;;;1.41;100.00
13695;BME280;6919;52.344;14.518;2023-11-22T10:49:50;102144.94;;;1.39;100.00
13695;BME280;6919;52.344;14.518;2023-11-22T10:52:19;102151.97;;;1.40;100.00
13695;BME280;6919;52.344;14.518;2023-11-22T10:54:50;102142.34;;;1.37;100.00
13695;BME280;6919;52.344;14.518;2023-11-22T10:57:26;102136.72;;;1.68;100.00
13695;BME280;6919;52.344;14.518;2023-11-22T11:00:00;102150.72;;;1.71;100.00
13695;BME280;6919;52.344;14.518;2023-11-22T11:02:35;102145.63;;;1.88;100.00
13695;BME280;6919;52.344;14.518;2023-11-22T11:05:14;102139.94;;;1.54;100.00
13695;BME280;6919;52.344;14.518;2023-11-22T11:07:49;102138.59;;;1.66;100.00
13695;BME280;6919;52.344;14.518;2023-11-22T11:10:20;102141.91;;;1.71;100.00
13695;BME280;6919;52.344;14.518;2023-11-22T11:12:52;102143.88;;;1.87;100.00
13695;BME280;6919;52.344;14.518;2023-11-22T11:15:23;102142.34;;;1.60;100.00
13695;BME280;6919;52.344;14.518;2023-11-22T11:17:51;102136.00;;;1.64;100.00
13695;BME280;6919;52.344;14.518;2023-11-22T11:20:23;102135.72;;;1.72;100.00
13695;BME280;6919;52.344;14.518;2023-11-22T11:22:53;102132.50;;;1.64;100.00
13695;BME280;6919;52.344;14.518;2023-11-22T11:25:23;102132.44;;;1.65;100.00
13695;BME280;6919;52.344;14.518;2023-11-22T11:27:56;102129.00;;;1.63;100.00
13695;BME280;6919;52.344;14.518;2023-11-22T11:30:52;102115.72;;;1.86;100.00
13695;BME280;6919;52.344;14.518;2023-11-22T11:33:27;102114.41;;;1.75;100.00
13695;BME280;6919;52.344;14.518;2023-11-22T11:36:02;102115.06;;;2.01;100.00
13695;BME280;6919;52.344;14.518;2023-11-22T11:38:34;102113.84;;;2.10;100.00
13695;BME280;6919;52.344;14.518;2023-11-22T11:41:10;102098.38;;;2.21;100.00
13695;BME280;6919;52.344;14.518;2023-11-22T11:43:46;102076.78;;;2.10;100.00
13695;BME280;6919;52.344;14.518;2023-11-22T11:46:17;102069.13;;;2.24;100.00
13695;BME280;6919;52.344;14.518;2023-11-22T11:48:50;102063.25;;;2.17;100.00
13695;BME280;6919;52.344;14.518;2023-11-22T11:51:39;102067.03;;;2.32;100.00
13695;BME280;6919;52.344;14.518;2023-11-22T11:54:08;102058.94;;;2.55;100.00
13695;BME280;6919;52.344;14.518;2023-11-22T11:56:40;102063.84;;;2.64;100.00
13695;BME280;6919;52.344;14.518;2023-11-22T11:59:10;102062.56;;;2.91;100.00
13695;BME280;6919;52.344;14.518;2023-11-22T12:01:40;102063.09;;;2.40;100.00
13695;BME280;6919;52.344;14.518;2023-11-22T12:04:09;102071.72;;;2.45;100.00
13695;BME280;6919;52.344;14.518;2023-11-22T12:06:38;102073.03;;;2.35;100.00
13695;BME280;6919;52.344;14.518;2023-11-22T12:09:07;102058.41;;;2.47;100.00
13695;BME280;6919;52.344;14.518;2023-11-22T12:11:36;102049.16;;;2.37;100.00
13695;BME280;6919;52.344;14.518;2023-11-22T12:14:06;102047.28;;;2.59;100.00
13695;BME280;6919;52.344;14.518;2023-11-22T12:16:36;102053.97;;;2.47;100.00
13695;BME280;6919;52.344;14.518;2023-11-22T12:19:07;102046.44;;;2.77;100.00
13695;BME280;6919;52.344;14.518;2023-11-22T12:21:36;102038.53;;;3.14;100.00
13695;BME280;6919;52.344;14.518;2023-11-22T12:24:05;102011.56;;;2.67;100.00
13695;BME280;6919;52.344;14.518;2023-11-22T12:26:40;102007.09;;;2.69;100.00
13695;BME280;6919;52.344;14.518;2023-11-22T12:29:12;102006.13;;;2.52;100.00
13695;BME280;6919;52.344;14.518;2023-11-22T12:31:45;102000.34;;;2.81;100.00
13695;BME280;6919;52.344;14.518;2023-11-22T12:34:17;101996.03;;;2.60;100.00
13695;BME280;6919;52.344;14.518;2023-11-22T12:36:46;101985.06;;;2.49;100.00
13695;BME280;6919;52.344;14.518;2023-11-22T12:39:16;101984.13;;;2.11;100.00
13695;BME280;6919;52.344;14.518;2023-11-22T12:41:45;101985.13;;;2.09;100.00
13695;BME280;6919;52.344;14.518;2023-11-22T12:44:28;101983.31;;;2.29;100.00
13695;BME280;6919;52.344;14.518;2023-11-22T12:46:59;101987.06;;;2.44;100.00
13695;BME280;6919;52.344;14.518;2023-11-22T12:49:33;101976.22;;;2.87;100.00
13695;BME280;6919;52.344;14.518;2023-11-22T12:52:11;101976.44;;;3.01;100.00
13695;BME280;6919;52.344;14.518;2023-11-22T12:54:41;101973.56;;;2.87;100.00
13695;BME280;6919;52.344;14.518;2023-11-22T12:57:11;101972.88;;;2.83;100.00